sensor_id;sensor_type;location;lat;lon;timestamp;pressure;altitude;pressure_sealevel;temperature;humidity
10261;BME280;5175;42.606;23.388;2023-03-04T00:01:30;93723.94;;;5.50;100.00
10261;BME280;5175;42.606;23.388;2023-03-04T00:03:57;93724.56;;;5.57;100.00
10261;BME280;5175;42.606;23.388;2023-03-04T00:06:23;93741.41;;;5.73;100.00
10261;BME280;5175;42.606;23.388;2023-03-04T00:08:50;93740.69;;;5.82;100.00
10261;BME280;5175;42.606;23.388;2023-03-04T00:11:17;93745.59;;;5.90;100.00
10261;BME280;5175;42.606;23.388;2023-03-04T00:13:44;93739.97;;;5.87;100.00
10261;BME280;5175;42.606;23.388;2023-03-04T00:16:10;93735.16;;;5.84;100.00
10261;BME280;5175;42.606;23.388;2023-03-04T00:18:39;93739.72;;;5.88;100.00
10261;BME280;5175;42.606;23.388;2023-03-04T00:21:05;93744.50;;;5.91;100.00
10261;BME280;5175;42.606;23.388;2023-03-04T00:23:32;93732.88;;;5.92;100.00
10261;BME280;5175;42.606;23.388;2023-03-04T00:25:59;93733.75;;;5.98;100.00
10261;BME280;5175;42.606;23.388;2023-03-04T00:28:26;93717.00;;;5.92;100.00
10261;BME280;5175;42.606;23.388;2023-03-04T00:30:53;93729.88;;;6.10;100.00
10261;BME280;5175;42.606;23.388;2023-03-04T00:33:20;93739.34;;;6.06;100.00
10261;BME280;5175;42.606;23.388;2023-03-04T00:35:48;93737.19;;;5.98;100.00
10261;BME280;5175;42.606;23.388;2023-03-04T00:38:15;93727.16;;;5.79;100.00
10261;BME280;5175;42.606;23.388;2023-03-04T00:40:41;93732.63;;;5.94;100.00
10261;BME280;5175;42.606;23.388;2023-03-04T00:43:08;93733.97;;;5.96;100.00
10261;BME280;5175;42.606;23.388;2023-03-04T00:45:35;93725.56;;;6.04;100.00
10261;BME280;5175;42.606;23.388;2023-03-04T00:48:02;93726.63;;;6.03;100.00
10261;BME280;5175;42.606;23.388;2023-03-04T00:50:29;93734.81;;;6.02;100.00
10261;BME280;5175;42.606;23.388;2023-03-04T00:52:57;93724.72;;;5.99;100.00
10261;BME280;5175;42.606;23.388;2023-03-04T00:55:24;93725.22;;;5.96;100.00
10261;BME280;5175;42.606;23.388;2023-03-04T00:57:50;93713.97;;;5.84;100.00
10261;BME280;5175;42.606;23.388;2023-03-04T01:00:18;93727.19;;;5.84;100.00
10261;BME280;5175;42.606;23.388;2023-03-04T01:02:45;93729.84;;;5.84;100.00
10261;BME280;5175;42.606;23.388;2023-03-04T01:05:12;93716.56;;;5.79;100.00
10261;BME280;5175;42.606;23.388;2023-03-04T01:07:39;93714.22;;;5.55;100.00
10261;BME280;5175;42.606;23.388;2023-03-04T01:10:09;93714.22;;;5.55;100.00
10261;BME280;5175;42.606;23.388;2023-03-04T01:12:37;93658.63;;;5.24;100.00
10261;BME280;5175;42.606;23.388;2023-03-04T01:15:07;93710.19;;;5.75;100.00
10261;BME280;5175;42.606;23.388;2023-03-04T01:17:34;93701.50;;;5.79;100.00
10261;BME280;5175;42.606;23.388;2023-03-04T01:20:01;93712.19;;;5.89;100.00
10261;BME280;5175;42.606;23.388;2023-03-04T01:22:28;93708.25;;;5.92;100.00
10261;BME280;5175;42.606;23.388;2023-03-04T01:24:55;93703.94;;;5.86;100.00
10261;BME280;5175;42.606;23.388;2023-03-04T01:27:23;93697.22;;;5.78;100.00
10261;BME280;5175;42.606;23.388;2023-03-04T01:29:50;93699.94;;;5.56;100.00
10261;BME280;5175;42.606;23.388;2023-03-04T01:32:17;93686.22;;;5.59;100.00
10261;BME280;5175;42.606;23.388;2023-03-04T01:34:44;93685.41;;;5.59;100.00
10261;BME280;5175;42.606;23.388;2023-03-04T01:37:11;93693.53;;;5.52;100.00
10261;BME280;5175;42.606;23.388;2023-03-04T01:39:39;93683.25;;;5.29;100.00
10261;BME280;5175;42.606;23.388;2023-03-04T01:42:15;93702.50;;;5.46;100.00
10261;BME280;5175;42.606;23.388;2023-03-04T01:44:45;93696.34;;;5.41;100.00
10261;BME280;5175;42.606;23.388;2023-03-04T01:47:13;93687.88;;;5.39;100.00
10261;BME280;5175;42.606;23.388;2023-03-04T01:49:40;93688.59;;;5.34;100.00
10261;BME280;5175;42.606;23.388;2023-03-04T01:52:09;93682.75;;;5.32;100.00
10261;BME280;5175;42.606;23.388;2023-03-04T01:54:37;93680.47;;;5.41;100.00
10261;BME280;5175;42.606;23.388;2023-03-04T01:57:06;93685.31;;;5.49;100.00
10261;BME280;5175;42.606;23.388;2023-03-04T01:59:41;93689.00;;;5.48;100.00
10261;BME280;5175;42.606;23.388;2023-03-04T02:02:09;93684.81;;;5.52;100.00
10261;BME280;5175;42.606;23.388;2023-03-04T02:04:38;93681.88;;;5.48;100.00
10261;BME280;5175;42.606;23.388;2023-03-04T02:07:06;93680.94;;;5.59;100.00
10261;BME280;5175;42.606;23.388;2023-03-04T02:09:34;93674.78;;;5.54;100.00
10261;BME280;5175;42.606;23.388;2023-03-04T02:12:01;93673.75;;;5.60;100.00
10261;BME280;5175;42.606;23.388;2023-03-04T02:14:28;93678.16;;;5.76;100.00
10261;BME280;5175;42.606;23.388;2023-03-04T02:16:55;93681.41;;;5.83;100.00
10261;BME280;5175;42.606;23.388;2023-03-04T02:19:33;93673.38;;;5.73;100.00
10261;BME280;5175;42.606;23.388;2023-03-04T02:22:02;93678.66;;;5.73;100.00
10261;BME280;5175;42.606;23.388;2023-03-04T02:24:33;93681.53;;;5.66;100.00
10261;BME280;5175;42.606;23.388;2023-03-04T02:27:03;93681.16;;;5.58;100.00
10261;BME280;5175;42.606;23.388;2023-03-04T02:29:30;93684.78;;;5.47;100.00
10261;BME280;5175;42.606;23.388;2023-03-04T02:31:57;93676.25;;;5.45;100.00
10261;BME280;5175;42.606;23.388;2023-03-04T02:34:26;93675.72;;;5.43;100.00
10261;BME280;5175;42.606;23.388;2023-03-04T02:36:55;93684.16;;;5.40;100.00
10261;BME280;5175;42.606;23.388;2023-03-04T02:39:28;93671.94;;;5.34;100.00
10261;BME280;5175;42.606;23.388;2023-03-04T02:41:56;93678.16;;;5.23;100.00
10261;BME280;5175;42.606;23.388;2023-03-04T02:44:25;93667.47;;;5.13;100.00
10261;BME280;5175;42.606;23.388;2023-03-04T02:46:53;93666.66;;;5.12;100.00
10261;BME280;5175;42.606;23.388;2023-03-04T02:49:22;93674.59;;;5.12;100.00
10261;BME280;5175;42.606;23.388;2023-03-04T02:51:50;93670.69;;;4.93;100.00
10261;BME280;5175;42.606;23.388;2023-03-04T02:54:20;93666.91;;;4.89;100.00
10261;BME280;5175;42.606;23.388;2023-03-04T02:56:49;93658.94;;;4.84;100.00
10261;BME280;5175;42.606;23.388;2023-03-04T02:59:17;93665.16;;;4.94;100.00
10261;BME280;5175;42.606;23.388;2023-03-04T03:01:45;93669.34;;;4.90;100.00
10261;BME280;5175;42.606;23.388;2023-03-04T03:04:12;93657.13;;;4.68;100.00
10261;BME280;5175;42.606;23.388;2023-03-04T03:06:39;93668.47;;;4.85;100.00
10261;BME280;5175;42.606;23.388;2023-03-04T03:09:06;93666.53;;;4.80;100.00
10261;BME280;5175;42.606;23.388;2023-03-04T03:11:34;93659.63;;;4.74;100.00
10261;BME280;5175;42.606;23.388;2023-03-04T03:14:01;93665.19;;;4.99;100.00
10261;BME280;5175;42.606;23.388;2023-03-04T03:16:28;93666.44;;;4.92;100.00
10261;BME280;5175;42.606;23.388;2023-03-04T03:18:56;93663.34;;;4.78;100.00
10261;BME280;5175;42.606;23.388;2023-03-04T03:21:23;93660.59;;;4.68;100.00
10261;BME280;5175;42.606;23.388;2023-03-04T03:23:49;93666.69;;;4.52;100.00
10261;BME280;5175;42.606;23.388;2023-03-04T03:26:17;93667.44;;;4.48;100.00
10261;BME280;5175;42.606;23.388;2023-03-04T03:28:44;93665.66;;;4.53;100.00
10261;BME280;5175;42.606;23.388;2023-03-04T03:31:11;93647.91;;;4.49;100.00
10261;BME280;5175;42.606;23.388;2023-03-04T03:33:38;93666.06;;;4.62;100.00
10261;BME280;5175;42.606;23.388;2023-03-04T03:36:07;93661.81;;;4.61;100.00
10261;BME280;5175;42.606;23.388;2023-03-04T03:38:34;93670.09;;;4.48;100.00
10261;BME280;5175;42.606;23.388;2023-03-04T03:41:01;93667.78;;;4.34;100.00
10261;BME280;5175;42.606;23.388;2023-03-04T03:43:27;93664.69;;;4.21;100.00
10261;BME280;5175;42.606;23.388;2023-03-04T03:45:54;93659.34;;;3.99;100.00
10261;BME280;5175;42.606;23.388;2023-03-04T03:48:21;93656.38;;;3.96;100.00
10261;BME280;5175;42.606;23.388;2023-03-04T03:50:48;93661.28;;;3.87;100.00
10261;BME280;5175;42.606;23.388;2023-03-04T03:53:16;93658.31;;;3.84;100.00
10261;BME280;5175;42.606;23.388;2023-03-04T03:55:43;93649.91;;;3.70;100.00
10261;BME280;5175;42.606;23.388;2023-03-04T03:58:10;93641.44;;;3.51;100.00
10261;BME280;5175;42.606;23.388;2023-03-04T04:00:37;93654.63;;;3.68;100.00
10261;BME280;5175;42.606;23.388;2023-03-04T04:03:03;93592.28;;;3.45;100.00
10261;BME280;5175;42.606;23.388;2023-03-04T04:05:30;93638.50;;;3.64;100.00
10261;BME280;5175;42.606;23.388;2023-03-04T04:07:57;93652.13;;;3.45;100.00
10261;BME280;5175;42.606;23.388;2023-03-04T04:10:25;93650.03;;;3.47;100.00
10261;BME280;5175;42.606;23.388;2023-03-04T04:12:52;93651.19;;;3.51;100.00
10261;BME280;5175;42.606;23.388;2023-03-04T04:15:19;93656.19;;;3.52;100.00
10261;BME280;5175;42.606;23.388;2023-03-04T04:17:46;93645.72;;;3.41;100.00
10261;BME280;5175;42.606;23.388;2023-03-04T04:20:12;93640.28;;;3.31;100.00
10261;BME280;5175;42.606;23.388;2023-03-04T04:22:39;93650.75;;;3.42;100.00
10261;BME280;5175;42.606;23.388;2023-03-04T04:25:07;93650.88;;;3.19;100.00
10261;BME280;5175;42.606;23.388;2023-03-04T04:27:36;93625.44;;;2.96;100.00
10261;BME280;5175;42.606;23.388;2023-03-04T04:30:04;93653.38;;;3.26;100.00
10261;BME280;5175;42.606;23.388;2023-03-04T04:32:31;93652.41;;;3.32;100.00
10261;BME280;5175;42.606;23.388;2023-03-04T04:34:58;93647.22;;;3.37;100.00
10261;BME280;5175;42.606;23.388;2023-03-04T04:37:25;93654.91;;;3.38;100.00
10261;BME280;5175;42.606;23.388;2023-03-04T04:39:52;93653.09;;;3.39;100.00
10261;BME280;5175;42.606;23.388;2023-03-04T04:42:19;93637.97;;;3.34;100.00
10261;BME280;5175;42.606;23.388;2023-03-04T04:44:48;93646.13;;;3.33;100.00
10261;BME280;5175;42.606;23.388;2023-03-04T04:47:15;93631.06;;;3.16;100.00
10261;BME280;5175;42.606;23.388;2023-03-04T04:49:42;93644.72;;;3.13;100.00
10261;BME280;5175;42.606;23.388;2023-03-04T04:52:09;93645.56;;;3.31;100.00
10261;BME280;5175;42.606;23.388;2023-03-04T04:54:36;93655.50;;;3.12;100.00
10261;BME280;5175;42.606;23.388;2023-03-04T04:57:03;93649.28;;;3.18;100.00
10261;BME280;5175;42.606;23.388;2023-03-04T04:59:29;93657.28;;;3.23;100.00
10261;BME280;5175;42.606;23.388;2023-03-04T05:01:58;93648.72;;;3.16;100.00
10261;BME280;5175;42.606;23.388;2023-03-04T05:04:25;93626.75;;;3.10;100.00
10261;BME280;5175;42.606;23.388;2023-03-04T05:06:52;93659.72;;;3.41;100.00
10261;BME280;5175;42.606;23.388;2023-03-04T05:09:19;93662.22;;;3.20;100.00
10261;BME280;5175;42.606;23.388;2023-03-04T05:11:47;93663.56;;;3.05;100.00
10261;BME280;5175;42.606;23.388;2023-03-04T05:14:14;93666.13;;;3.17;100.00
10261;BME280;5175;42.606;23.388;2023-03-04T05:16:41;93663.31;;;3.07;100.00
10261;BME280;5175;42.606;23.388;2023-03-04T05:19:09;93664.16;;;3.24;100.00
10261;BME280;5175;42.606;23.388;2023-03-04T05:21:36;93662.38;;;3.41;100.00
10261;BME280;5175;42.606;23.388;2023-03-04T05:24:03;93670.44;;;3.51;100.00
10261;BME280;5175;42.606;23.388;2023-03-04T05:26:30;93680.91;;;3.63;100.00
10261;BME280;5175;42.606;23.388;2023-03-04T05:28:57;93682.38;;;3.70;100.00
10261;BME280;5175;42.606;23.388;2023-03-04T05:31:24;93685.88;;;3.76;100.00
10261;BME280;5175;42.606;23.388;2023-03-04T05:33:51;93682.88;;;3.84;100.00
10261;BME280;5175;42.606;23.388;2023-03-04T05:36:19;93675.59;;;3.74;100.00
10261;BME280;5175;42.606;23.388;2023-03-04T05:38:46;93687.63;;;3.70;100.00
10261;BME280;5175;42.606;23.388;2023-03-04T05:41:13;93682.59;;;3.86;100.00
10261;BME280;5175;42.606;23.388;2023-03-04T05:43:43;93671.13;;;3.47;100.00
10261;BME280;5175;42.606;23.388;2023-03-04T05:46:12;93554.19;;;2.75;100.00
10261;BME280;5175;42.606;23.388;2023-03-04T05:48:40;93692.69;;;3.89;100.00
10261;BME280;5175;42.606;23.388;2023-03-04T05:51:06;93683.28;;;3.93;100.00
10261;BME280;5175;42.606;23.388;2023-03-04T05:53:35;93688.94;;;3.85;100.00
10261;BME280;5175;42.606;23.388;2023-03-04T05:56:06;93683.66;;;4.01;100.00
10261;BME280;5175;42.606;23.388;2023-03-04T05:58:33;93685.16;;;4.14;100.00
10261;BME280;5175;42.606;23.388;2023-03-04T06:01:00;93680.47;;;4.16;100.00
10261;BME280;5175;42.606;23.388;2023-03-04T06:03:27;93691.72;;;4.28;100.00
10261;BME280;5175;42.606;23.388;2023-03-04T06:05:54;93693.38;;;4.34;100.00
10261;BME280;5175;42.606;23.388;2023-03-04T06:08:21;93677.78;;;4.32;100.00
10261;BME280;5175;42.606;23.388;2023-03-04T06:10:51;93693.19;;;4.57;100.00
10261;BME280;5175;42.606;23.388;2023-03-04T06:13:18;93689.78;;;4.78;100.00
10261;BME280;5175;42.606;23.388;2023-03-04T06:15:46;93693.19;;;4.95;100.00
10261;BME280;5175;42.606;23.388;2023-03-04T06:18:13;93694.81;;;5.01;100.00
10261;BME280;5175;42.606;23.388;2023-03-04T06:20:39;93699.09;;;5.02;100.00
10261;BME280;5175;42.606;23.388;2023-03-04T06:23:06;93702.97;;;4.95;100.00
10261;BME280;5175;42.606;23.388;2023-03-04T06:25:33;93694.66;;;4.86;100.00
10261;BME280;5175;42.606;23.388;2023-03-04T06:28:01;93700.25;;;4.90;100.00
10261;BME280;5175;42.606;23.388;2023-03-04T06:30:28;93700.91;;;4.80;100.00
10261;BME280;5175;42.606;23.388;2023-03-04T06:32:55;93673.09;;;4.18;100.00
10261;BME280;5175;42.606;23.388;2023-03-04T06:35:22;93701.97;;;4.41;100.00
10261;BME280;5175;42.606;23.388;2023-03-04T06:37:49;93717.63;;;4.64;100.00
10261;BME280;5175;42.606;23.388;2023-03-04T06:40:15;93712.13;;;4.32;100.00
10261;BME280;5175;42.606;23.388;2023-03-04T06:42:42;93717.56;;;4.09;100.00
10261;BME280;5175;42.606;23.388;2023-03-04T06:45:11;93708.84;;;4.09;100.00
10261;BME280;5175;42.606;23.388;2023-03-04T06:47:38;93711.81;;;4.12;100.00
10261;BME280;5175;42.606;23.388;2023-03-04T06:50:05;93717.72;;;4.19;100.00
10261;BME280;5175;42.606;23.388;2023-03-04T06:52:32;93688.94;;;4.18;100.00
10261;BME280;5175;42.606;23.388;2023-03-04T06:54:58;93720.19;;;4.59;100.00
10261;BME280;5175;42.606;23.388;2023-03-04T06:57:25;93720.31;;;4.69;100.00
10261;BME280;5175;42.606;23.388;2023-03-04T06:59:52;93720.41;;;4.74;100.00
10261;BME280;5175;42.606;23.388;2023-03-04T07:02:20;93721.25;;;4.80;100.00
10261;BME280;5175;42.606;23.388;2023-03-04T07:04:47;93710.69;;;4.80;100.00
10261;BME280;5175;42.606;23.388;2023-03-04T07:07:14;93722.25;;;4.95;100.00
10261;BME280;5175;42.606;23.388;2023-03-04T07:09:41;93725.63;;;4.91;100.00
10261;BME280;5175;42.606;23.388;2023-03-04T07:12:08;93719.00;;;5.10;100.00
10261;BME280;5175;42.606;23.388;2023-03-04T07:14:35;93718.09;;;5.21;100.00
10261;BME280;5175;42.606;23.388;2023-03-04T07:17:02;93719.50;;;5.29;100.00
10261;BME280;5175;42.606;23.388;2023-03-04T07:19:30;93724.09;;;5.38;100.00
10261;BME280;5175;42.606;23.388;2023-03-04T07:21:57;93729.19;;;5.45;100.00
10261;BME280;5175;42.606;23.388;2023-03-04T07:24:24;93734.47;;;5.45;100.00
10261;BME280;5175;42.606;23.388;2023-03-04T07:26:50;93737.13;;;5.45;100.00
10261;BME280;5175;42.606;23.388;2023-03-04T07:29:17;93732.94;;;5.49;100.00
10261;BME280;5175;42.606;23.388;2023-03-04T07:31:44;93714.72;;;5.52;100.00
10261;BME280;5175;42.606;23.388;2023-03-04T07:34:12;93731.97;;;5.60;100.00
10261;BME280;5175;42.606;23.388;2023-03-04T07:36:41;93739.25;;;5.69;100.00
10261;BME280;5175;42.606;23.388;2023-03-04T07:39:11;93734.41;;;5.61;100.00
10261;BME280;5175;42.606;23.388;2023-03-04T07:41:39;93734.28;;;5.51;100.00
10261;BME280;5175;42.606;23.388;2023-03-04T07:44:07;93729.81;;;5.52;100.00
10261;BME280;5175;42.606;23.388;2023-03-04T07:46:34;93733.69;;;5.71;100.00
10261;BME280;5175;42.606;23.388;2023-03-04T07:49:01;93725.56;;;5.78;100.00
10261;BME280;5175;42.606;23.388;2023-03-04T07:51:29;93720.56;;;5.81;100.00
10261;BME280;5175;42.606;23.388;2023-03-04T07:54:00;93730.91;;;5.83;100.00
10261;BME280;5175;42.606;23.388;2023-03-04T07:56:29;93730.72;;;5.89;100.00
10261;BME280;5175;42.606;23.388;2023-03-04T07:58:56;93761.06;;;6.03;100.00
10261;BME280;5175;42.606;23.388;2023-03-04T08:01:25;93725.53;;;5.99;100.00
10261;BME280;5175;42.606;23.388;2023-03-04T08:03:52;93732.47;;;6.05;100.00
10261;BME280;5175;42.606;23.388;2023-03-04T08:06:20;93725.56;;;6.04;100.00
10261;BME280;5175;42.606;23.388;2023-03-04T08:08:47;93727.75;;;6.12;100.00
10261;BME280;5175;42.606;23.388;2023-03-04T08:11:18;93727.09;;;5.95;100.00
10261;BME280;5175;42.606;23.388;2023-03-04T08:13:45;93730.81;;;5.99;100.00
10261;BME280;5175;42.606;23.388;2023-03-04T08:16:13;93725.56;;;6.04;100.00
10261;BME280;5175;42.606;23.388;2023-03-04T08:18:41;93729.22;;;6.30;100.00
10261;BME280;5175;42.606;23.388;2023-03-04T08:21:09;93728.56;;;6.50;100.00
10261;BME280;5175;42.606;23.388;2023-03-04T08:23:37;93732.00;;;6.45;100.00
10261;BME280;5175;42.606;23.388;2023-03-04T08:26:08;93731.72;;;6.42;100.00
10261;BME280;5175;42.606;23.388;2023-03-04T08:28:37;93721.66;;;6.44;100.00
10261;BME280;5175;42.606;23.388;2023-03-04T08:31:04;93723.97;;;6.72;100.00
10261;BME280;5175;42.606;23.388;2023-03-04T08:33:31;93722.56;;;7.06;100.00
10261;BME280;5175;42.606;23.388;2023-03-04T08:35:58;93721.81;;;7.11;100.00
10261;BME280;5175;42.606;23.388;2023-03-04T08:38:25;93718.03;;;7.02;100.00
10261;BME280;5175;42.606;23.388;2023-03-04T08:40:52;93729.00;;;7.20;100.00
10261;BME280;5175;42.606;23.388;2023-03-04T08:43:20;93717.59;;;7.20;100.00
10261;BME280;5175;42.606;23.388;2023-03-04T08:45:48;93724.47;;;7.16;100.00
10261;BME280;5175;42.606;23.388;2023-03-04T08:48:15;93716.00;;;7.19;100.00
10261;BME280;5175;42.606;23.388;2023-03-04T08:50:43;93718.72;;;7.34;100.00
10261;BME280;5175;42.606;23.388;2023-03-04T08:53:10;93717.09;;;7.28;100.00
10261;BME280;5175;42.606;23.388;2023-03-04T08:55:37;93652.94;;;6.74;100.00
10261;BME280;5175;42.606;23.388;2023-03-04T08:58:04;93725.00;;;7.13;100.00
10261;BME280;5175;42.606;23.388;2023-03-04T09:00:31;93718.94;;;7.27;100.00
10261;BME280;5175;42.606;23.388;2023-03-04T09:02:59;93714.34;;;7.03;100.00
10261;BME280;5175;42.606;23.388;2023-03-04T09:05:26;93711.13;;;6.96;100.00
10261;BME280;5175;42.606;23.388;2023-03-04T09:07:55;93704.06;;;7.16;100.00
10261;BME280;5175;42.606;23.388;2023-03-04T09:10:22;93704.38;;;7.35;100.00
10261;BME280;5175;42.606;23.388;2023-03-04T09:12:49;93702.81;;;7.34;100.00
10261;BME280;5175;42.606;23.388;2023-03-04T09:15:16;93703.38;;;7.51;100.00
10261;BME280;5175;42.606;23.388;2023-03-04T09:17:43;93705.75;;;7.52;100.00
10261;BME280;5175;42.606;23.388;2023-03-04T09:20:12;93698.38;;;7.60;100.00
10261;BME280;5175;42.606;23.388;2023-03-04T09:22:40;93706.88;;;7.62;100.00
10261;BME280;5175;42.606;23.388;2023-03-04T09:25:10;93647.78;;;7.14;100.00
10261;BME280;5175;42.606;23.388;2023-03-04T09:27:39;93696.47;;;7.55;100.00
10261;BME280;5175;42.606;23.388;2023-03-04T09:30:07;93693.03;;;7.54;100.00
10261;BME280;5175;42.606;23.388;2023-03-04T09:32:34;93681.09;;;7.52;100.00
10261;BME280;5175;42.606;23.388;2023-03-04T09:35:01;93689.59;;;7.59;100.00
10261;BME280;5175;42.606;23.388;2023-03-04T09:37:29;93698.53;;;7.33;100.00
10261;BME280;5175;42.606;23.388;2023-03-04T09:39:56;93690.09;;;7.46;100.00
10261;BME280;5175;42.606;23.388;2023-03-04T09:42:24;93695.16;;;7.52;100.00
10261;BME280;5175;42.606;23.388;2023-03-04T09:44:53;93701.84;;;7.65;100.00
10261;BME280;5175;42.606;23.388;2023-03-04T09:47:21;93693.31;;;7.68;100.00
10261;BME280;5175;42.606;23.388;2023-03-04T09:49:54;93692.53;;;7.63;100.00
10261;BME280;5175;42.606;23.388;2023-03-04T09:52:32;93675.03;;;7.72;100.00
10261;BME280;5175;42.606;23.388;2023-03-04T09:55:15;93665.75;;;7.84;100.00
10261;BME280;5175;42.606;23.388;2023-03-04T09:57:47;93671.84;;;7.80;100.00
10261;BME280;5175;42.606;23.388;2023-03-04T10:00:20;93675.56;;;7.79;100.00
10261;BME280;5175;42.606;23.388;2023-03-04T10:03:05;93664.41;;;7.67;100.00
10261;BME280;5175;42.606;23.388;2023-03-04T10:05:39;93678.94;;;7.44;100.00
10261;BME280;5175;42.606;23.388;2023-03-04T10:08:33;93682.97;;;7.62;100.00
10261;BME280;5175;42.606;23.388;2023-03-04T10:11:05;93654.81;;;7.55;100.00
10261;BME280;5175;42.606;23.388;2023-03-04T10:13:39;93650.31;;;7.76;100.00
10261;BME280;5175;42.606;23.388;2023-03-04T10:16:11;93660.44;;;7.89;100.00
10261;BME280;5175;42.606;23.388;2023-03-04T10:18:45;93669.22;;;7.90;100.00
10261;BME280;5175;42.606;23.388;2023-03-04T10:21:19;93662.56;;;8.12;100.00
10261;BME280;5175;42.606;23.388;2023-03-04T10:23:50;93646.34;;;7.99;100.00
10261;BME280;5175;42.606;23.388;2023-03-04T10:26:19;93660.19;;;8.16;100.00
10261;BME280;5175;42.606;23.388;2023-03-04T10:28:48;93655.38;;;8.58;100.00
10261;BME280;5175;42.606;23.388;2023-03-04T10:31:21;93661.50;;;8.54;100.00
10261;BME280;5175;42.606;23.388;2023-03-04T10:33:55;93645.19;;;8.96;100.00
10261;BME280;5175;42.606;23.388;2023-03-04T10:36:33;93653.72;;;8.93;100.00
10261;BME280;5175;42.606;23.388;2023-03-04T10:39:07;93647.28;;;9.09;100.00
10261;BME280;5175;42.606;23.388;2023-03-04T10:41:35;93641.91;;;9.19;100.00
10261;BME280;5175;42.606;23.388;2023-03-04T10:44:03;93649.81;;;9.34;100.00
10261;BME280;5175;42.606;23.388;2023-03-04T10:46:30;93631.03;;;9.10;100.00
10261;BME280;5175;42.606;23.388;2023-03-04T10:48:58;93482.72;;;8.03;100.00
10261;BME280;5175;42.606;23.388;2023-03-04T10:51:26;93629.38;;;9.24;100.00
10261;BME280;5175;42.606;23.388;2023-03-04T10:53:56;93633.59;;;9.30;100.00
10261;BME280;5175;42.606;23.388;2023-03-04T10:56:34;93621.84;;;9.36;100.00
10261;BME280;5175;42.606;23.388;2023-03-04T10:59:30;93625.31;;;9.37;100.00
10261;BME280;5175;42.606;23.388;2023-03-04T11:01:59;93616.66;;;9.60;100.00
10261;BME280;5175;42.606;23.388;2023-03-04T11:04:32;93617.44;;;9.61;100.00
10261;BME280;5175;42.606;23.388;2023-03-04T11:06:59;93619.81;;;9.67;100.00
10261;BME280;5175;42.606;23.388;2023-03-04T11:09:28;93609.41;;;9.66;100.00
10261;BME280;5175;42.606;23.388;2023-03-04T11:11:58;93607.06;;;9.59;100.00
10261;BME280;5175;42.606;23.388;2023-03-04T11:14:27;93604.34;;;9.69;100.00
10261;BME280;5175;42.606;23.388;2023-03-04T11:16:58;93567.34;;;9.68;100.00
10261;BME280;5175;42.606;23.388;2023-03-04T11:19:28;93593.38;;;9.76;100.00
10261;BME280;5175;42.606;23.388;2023-03-04T11:21:58;93582.75;;;9.71;100.00
10261;BME280;5175;42.606;23.388;2023-03-04T11:24:27;93584.97;;;9.59;100.00
10261;BME280;5175;42.606;23.388;2023-03-04T11:27:00;93574.06;;;9.60;100.00
10261;BME280;5175;42.606;23.388;2023-03-04T11:29:32;93577.16;;;9.72;100.00
10261;BME280;5175;42.606;23.388;2023-03-04T11:32:04;93580.16;;;9.61;100.00
10261;BME280;5175;42.606;23.388;2023-03-04T11:34:38;93563.44;;;9.55;100.00
10261;BME280;5175;42.606;23.388;2023-03-04T11:37:11;93567.41;;;9.58;100.00
10261;BME280;5175;42.606;23.388;2023-03-04T11:39:45;93550.97;;;9.45;100.00
10261;BME280;5175;42.606;23.388;2023-03-04T11:42:22;93550.84;;;9.61;100.00
10261;BME280;5175;42.606;23.388;2023-03-04T11:44:54;93555.66;;;9.59;100.00
10261;BME280;5175;42.606;23.388;2023-03-04T11:47:36;93542.56;;;9.67;100.00
10261;BME280;5175;42.606;23.388;2023-03-04T11:50:22;93537.63;;;9.51;100.00
10261;BME280;5175;42.606;23.388;2023-03-04T11:53:14;93547.41;;;9.60;100.00
10261;BME280;5175;42.606;23.388;2023-03-04T11:55:52;93529.47;;;9.37;100.00
10261;BME280;5175;42.606;23.388;2023-03-04T12:01:43;93531.50;;;9.50;100.00
10261;BME280;5175;42.606;23.388;2023-03-04T12:04:27;93535.97;;;9.60;100.00
10261;BME280;5175;42.606;23.388;2023-03-04T12:07:06;93527.38;;;9.34;100.00
10261;BME280;5175;42.606;23.388;2023-03-04T12:09:52;93536.78;;;9.60;100.00
10261;BME280;5175;42.606;23.388;2023-03-04T12:12:34;93537.84;;;9.59;100.00
10261;BME280;5175;42.606;23.388;2023-03-04T12:15:14;93514.06;;;9.34;100.00
10261;BME280;5175;42.606;23.388;2023-03-04T12:18:04;93524.72;;;9.29;100.00
10261;BME280;5175;42.606;23.388;2023-03-04T12:20:49;93517.75;;;9.38;100.00
10261;BME280;5175;42.606;23.388;2023-03-04T12:26:24;93527.28;;;9.44;100.00
10261;BME280;5175;42.606;23.388;2023-03-04T12:29:00;93521.06;;;9.20;100.00
10261;BME280;5175;42.606;23.388;2023-03-04T12:31:36;93518.78;;;9.42;100.00
10261;BME280;5175;42.606;23.388;2023-03-04T12:34:45;93517.47;;;9.39;100.00
10261;BME280;5175;42.606;23.388;2023-03-04T12:37:26;93494.81;;;9.03;100.00
10261;BME280;5175;42.606;23.388;2023-03-04T12:40:07;93502.41;;;9.20;100.00
10261;BME280;5175;42.606;23.388;2023-03-04T12:42:50;93498.72;;;9.16;100.00
10261;BME280;5175;42.606;23.388;2023-03-04T12:45:25;93497.69;;;9.12;100.00
10261;BME280;5175;42.606;23.388;2023-03-04T12:48:00;93481.44;;;9.13;100.00
10261;BME280;5175;42.606;23.388;2023-03-04T12:50:40;93497.56;;;9.32;100.00
10261;BME280;5175;42.606;23.388;2023-03-04T12:53:19;93481.88;;;9.25;100.00
10261;BME280;5175;42.606;23.388;2023-03-04T12:55:52;93492.81;;;9.24;100.00
10261;BME280;5175;42.606;23.388;2023-03-04T12:58:24;93491.06;;;9.43;100.00
10261;BME280;5175;42.606;23.388;2023-03-04T13:00:58;93477.47;;;9.78;100.00
10261;BME280;5175;42.606;23.388;2023-03-04T13:03:37;93468.44;;;9.74;100.00
10261;BME280;5175;42.606;23.388;2023-03-04T13:06:29;93486.81;;;9.76;100.00
10261;BME280;5175;42.606;23.388;2023-03-04T13:09:03;93479.34;;;9.78;100.00
10261;BME280;5175;42.606;23.388;2023-03-04T13:11:50;93484.03;;;9.91;100.00
10261;BME280;5175;42.606;23.388;2023-03-04T13:14:31;93482.38;;;9.95;100.00
10261;BME280;5175;42.606;23.388;2023-03-04T13:19:51;93471.63;;;9.76;100.00
10261;BME280;5175;42.606;23.388;2023-03-04T13:22:34;93463.91;;;9.75;100.00